(°C)
-1°
(°C)
-7°
-7°
-7°
-7°
-7°
-7°
-7°
SW
SW
SW
SW
SW
WSW
WSW
(كم/سا)
22-42
22-42
22-41
23-42
23-43
22-42
21-41
(مم)
0
0.6
0.6
0.6
0
0
0
(%)
58
84
98
67
30
43
30

مستوى ارتفاع الشمس

/ -2.5°
sun-icon
UV 0
09:23
17:10
هلال الصباح (45°)
12:55
20:04

متر لBarnaul Airport (UNBB)

الوقت الشروط درجة الحرارة/
نقطة الندى
رياح مجال رؤية حالة الطقس غيوم الضغط تغيير خام
MVFR 0°C / -1°C 230º 14kt >10km - Scattered Clouds 700ft
Broken Clouds 2000ft
1016 No Significant change. Runway 24: Wet snow, 51-100% contamination with 3mm, friction coefficient 0.34. UNBB 070200Z 23007MPS 9999 SCT007 BKN020CB 00/M01 Q1016 R24/590334 NOSIG RMK QFE740
MVFR 0°C / -1°C 220º 14kt >10km - Scattered Clouds 700ft
Broken Clouds 2000ft
1016 No Significant change. Runway 24: Wet snow, 51-100% contamination with 3mm, friction coefficient 0.34. UNBB 070130Z 22007MPS 9999 SCT007 BKN020CB 00/M01 Q1016 R24/590334 NOSIG RMK QFE739
MVFR 0°C / -1°C 220º 12kt >10km - Scattered Clouds 700ft
Broken Clouds 2000ft
1016 No Significant change. Runway 24: Wet snow, 51-100% contamination with 3mm, friction coefficient 0.34. UNBB 070100Z 22006MPS 9999 SCT007 BKN020CB 00/M01 Q1016 R24/590334 NOSIG RMK QFE739
MVFR 0°C / -1°C 220º 14kt 9000m Light Showers Snow 3.00mm precipitation Vertical Visibility of 0ft.
Broken Clouds 2000ft
1016 No Significant change. Runway 24: Wet snow, 51-100% contamination with 3mm, friction coefficient 0.34. UNBB 070030Z 22007MPS 9000 -SHSN SCT006 BKN020CB M00/M01 Q1016 R24/590334 NOSIG RMK QFE739
MVFR 0°C / -1°C 220º 14kt >10km - Scattered Clouds 800ft
Broken Clouds 2000ft
1015 No Significant change. Runway 24: Wet snow, 51-100% contamination with 3mm, friction coefficient 0.37. UNBB 070000Z 22007MPS 9999 SCT008 BKN020CB M00/M01 Q1015 R24/590337 NOSIG RMK QFE739
MVFR 0°C / -1°C 210º 12kt >10km - Scattered Clouds 900ft
Broken Clouds 2000ft
1015 No Significant change. Runway 24: Wet snow, 51-100% contamination with 3mm, friction coefficient 0.37. UNBB 062330Z 21006MPS 9999 SCT009 BKN020CB 00/M01 Q1015 R24/590337 NOSIG RMK QFE739
MVFR 0°C / -1°C 210º 12kt >10km Light Showers Snow 3.00mm precipitation Vertical Visibility of 0ft.
Broken Clouds 2000ft
1015 No Significant change. Runway 24: Wet snow, 51-100% contamination with 10mm, friction coefficient 0.32. UNBB 062300Z 21006MPS 9999 -SHSN SCT008 BKN020CB M00/M01 Q1015 R24/591032 NOSIG RMK QFE739
MVFR 0°C / -1°C 200º 12kt >10km Light Showers Snow 3.00mm precipitation Vertical Visibility of 0ft.
Broken Clouds 2000ft
1015 No Significant change. Runway 24: Wet snow, 51-100% contamination with 10mm, friction coefficient 0.32. UNBB 062230Z 20006MPS 9999 -SHSN SCT007 BKN020CB M00/M01 Q1015 R24/591032 NOSIG RMK QFE739
MVFR 0°C / -1°C 200º 12kt >10km Light Showers Snow 3.00mm precipitation Vertical Visibility of 0ft.
Broken Clouds 2000ft
1015 No Significant change. Runway 24: Wet snow, 51-100% contamination with 10mm, friction coefficient 0.32. UNBB 062200Z 20006MPS 9999 -SHSN SCT006 BKN020CB M00/M01 Q1015 R24/591032 NOSIG RMK QFE739
MVFR 0°C / -1°C 200º 10kt 6000m Light Showers Snow 3.00mm precipitation Vertical Visibility of 0ft.
Broken Clouds 1700ft
1016 No Significant change. Runway 24: Wet snow, 51-100% contamination with 10mm, friction coefficient 0.32. UNBB 062130Z 20005MPS 6000 -SHSN SCT005 BKN017CB M00/M01 Q1016 R24/591032 NOSIG RMK QFE739
IFR 0°C / -1°C 210º 10kt 2400m Light Showers Snow 3.00mm precipitation Vertical Visibility of 0ft.
Broken Clouds 1700ft
1016 No Significant change. Runway 24: Wet snow, 51-100% contamination with 5mm, friction coefficient 0.40. UNBB 062100Z 21005MPS 2400 -SHSN SCT005 BKN017CB M00/M01 Q1016 R24/590540 NOSIG RMK QFE740
IFR -1°C / -2°C 200º 10kt 4500m Light Showers Snow 3.00mm precipitation Vertical Visibility of 0ft.
Broken Clouds 1800ft
1016 No Significant change. Runway 24: Wet snow, 51-100% contamination with 5mm, friction coefficient 0.40. UNBB 062030Z 20005MPS 4500 -SHSN SCT005 BKN018CB M01/M02 Q1016 R24/590540 NOSIG RMK QFE740
IFR -1°C / -1°C 210º 10kt 2000m Showers Snow 3.00mm precipitation Vertical Visibility of 0ft.
Broken Clouds 1800ft
1016 No Significant change. Runway 24: Wet snow, 51-100% contamination with 5mm, friction coefficient 0.40. UNBB 062000Z 21005MPS 2000 SHSN SCT004 BKN018CB M01/M01 Q1016 R24/590540 NOSIG RMK QFE740
IFR -1°C / -2°C 200º 10kt 3100m Light Showers Snow 3.00mm precipitation Vertical Visibility of 0ft.
Broken Clouds 1600ft
1016 No Significant change. Runway 24: Wet snow, 51-100% contamination with 5mm, friction coefficient 0.40. UNBB 061930Z 20005MPS 3100 -SHSN SCT004 BKN016CB M01/M02 Q1016 R24/590540 NOSIG RMK QFE740
IFR -1°C / -2°C 190º 10kt 2300m Light Showers Snow 3.00mm precipitation Vertical Visibility of 0ft.
Broken Clouds 1600ft
1017 No Significant change. Runway 24: Wet snow, 51-100% contamination with 5mm, friction coefficient 0.40. UNBB 061900Z 19005MPS 2300 -SHSN SCT004 BKN016CB M01/M02 Q1017 R24/590540 NOSIG RMK QFE740
LIFR -2°C / -2°C 200º 10kt 1300m. Runway 24: Visual range is 2000m and increasing. Showers Snow 3.00mm precipitation Vertical Visibility of 0ft.
Broken Clouds 1600ft
1017 No Significant change. Runway 24: Wet snow, 51-100% contamination with 5mm, friction coefficient 0.40. UNBB 061830Z 20005MPS 1300 1200S R24/P2000U SHSN SCT004 BKN016CB M02/M02 Q1017 R24/590540 NOSIG RMK QFE740
LIFR -2°C / -2°C 200º 10kt 1400m. Runway 24: Visual range is 2000m and decreasing. Showers Snow 3.00mm precipitation Vertical Visibility of 0ft.
Broken Clouds 1600ft
1017 No Significant change. Runway 24: Damp, 51-100% contamination with <1mm, friction coefficient 0.53. UNBB 061800Z 20005MPS 1400 1300S R24/P2000D SHSN SCT004 BKN016CB M02/M02 Q1017 R24/190053 NOSIG RMK QFE740
IFR -2°C / -3°C 190º 8kt 2700m Light Showers Snow 3.00mm precipitation Vertical Visibility of 0ft.
Broken Clouds 1600ft
1017 No Significant change. Runway 24: Damp, 51-100% contamination with <1mm, friction coefficient 0.53. UNBB 061730Z 19004MPS 2700 -SHSN SCT005 BKN016CB M02/M03 Q1017 R24/190053 NOSIG RMK QFE740
IFR -2°C / -3°C 180º 8kt 2400m Light Showers Snow 3.00mm precipitation Vertical Visibility of 0ft.
Broken Clouds 1600ft
1017 No Significant change. Runway 24: Damp, 51-100% contamination with <1mm, friction coefficient 0.53. UNBB 061700Z 18004MPS 2400 -SHSN SCT005 BKN016CB M02/M03 Q1017 R24/190053 NOSIG RMK QFE741
IFR -2°C / -3°C 210º 10kt 3000m Light Showers Snow 3.00mm precipitation Vertical Visibility of 0ft.
Broken Clouds 2000ft
1017 No Significant change. Runway 24: Damp, 51-100% contamination with <1mm, friction coefficient 0.53. UNBB 061630Z 21005MPS 3000 -SHSN SCT005 BKN020CB M02/M03 Q1017 R24/190053 NOSIG RMK QFE741
MVFR -2°C / -3°C 220º 8kt 5000m Light Snow 1.00mm precipitation Vertical Visibility of 0ft. 1018 No Significant change. Runway 24: Damp, 51-100% contamination with <1mm, friction coefficient 0.53. UNBB 061600Z 22004MPS 5000 -SN BKN020 M02/M03 Q1018 R24/190053 NOSIG RMK QFE741
VFR -2°C / -4°C 220º 12kt >10km Light Snow 1.00mm precipitation Vertical Visibility of 0ft. 1018 No Significant change. Runway 24: Damp, 51-100% contamination with <1mm, friction coefficient 0.53. UNBB 061530Z 22006MPS 9999 -SN BKN032 M02/M04 Q1018 R24/190053 NOSIG RMK QFE741
MVFR -2°C / -4°C 220º 12kt 8000m Light Snow 1.00mm precipitation Vertical Visibility of 0ft. 1018 No Significant change. Runway 24: Damp, 51-100% contamination with <1mm, friction coefficient 0.53. UNBB 061500Z 22006MPS 8000 -SN BKN019 M02/M04 Q1018 R24/190053 NOSIG RMK QFE741
VFR -1°C / -5°C 220º 10kt >10km Light Snow 1.00mm precipitation Vertical Visibility of 0ft. 1018 No Significant change. Runway 24: Damp, 51-100% contamination with <1mm, friction coefficient 0.53. UNBB 061430Z 22005MPS 9999 -SN BKN040 M01/M05 Q1018 R24/190053 NOSIG RMK QFE741

MVFR

0°C / -1°C

[أكثر]
رياح 230º 14kt
مجال رؤية >10km
حالة الطقس -
غيوم Scattered Clouds 700ft
Broken Clouds 2000ft
الضغط 1016
تغيير No Significant change. Runway 24: Wet snow, 51-100% contamination with 3mm, friction coefficient 0.34.
خام UNBB 070200Z 23007MPS 9999 SCT007 BKN020CB 00/M01 Q1016 R24/590334 NOSIG RMK QFE740

MVFR

0°C / -1°C

[أكثر]
رياح 220º 14kt
مجال رؤية >10km
حالة الطقس -
غيوم Scattered Clouds 700ft
Broken Clouds 2000ft
الضغط 1016
تغيير No Significant change. Runway 24: Wet snow, 51-100% contamination with 3mm, friction coefficient 0.34.
خام UNBB 070130Z 22007MPS 9999 SCT007 BKN020CB 00/M01 Q1016 R24/590334 NOSIG RMK QFE739

MVFR

0°C / -1°C

[أكثر]
رياح 220º 12kt
مجال رؤية >10km
حالة الطقس -
غيوم Scattered Clouds 700ft
Broken Clouds 2000ft
الضغط 1016
تغيير No Significant change. Runway 24: Wet snow, 51-100% contamination with 3mm, friction coefficient 0.34.
خام UNBB 070100Z 22006MPS 9999 SCT007 BKN020CB 00/M01 Q1016 R24/590334 NOSIG RMK QFE739

MVFR

0°C / -1°C

[أكثر]
رياح 220º 14kt
مجال رؤية 9000m
حالة الطقس Light Showers Snow 3.00mm precipitation
غيوم Vertical Visibility of 0ft.
Broken Clouds 2000ft
الضغط 1016
تغيير No Significant change. Runway 24: Wet snow, 51-100% contamination with 3mm, friction coefficient 0.34.
خام UNBB 070030Z 22007MPS 9000 -SHSN SCT006 BKN020CB M00/M01 Q1016 R24/590334 NOSIG RMK QFE739

MVFR

0°C / -1°C

[أكثر]
رياح 220º 14kt
مجال رؤية >10km
حالة الطقس -
غيوم Scattered Clouds 800ft
Broken Clouds 2000ft
الضغط 1015
تغيير No Significant change. Runway 24: Wet snow, 51-100% contamination with 3mm, friction coefficient 0.37.
خام UNBB 070000Z 22007MPS 9999 SCT008 BKN020CB M00/M01 Q1015 R24/590337 NOSIG RMK QFE739

MVFR

0°C / -1°C

[أكثر]
رياح 210º 12kt
مجال رؤية >10km
حالة الطقس -
غيوم Scattered Clouds 900ft
Broken Clouds 2000ft
الضغط 1015
تغيير No Significant change. Runway 24: Wet snow, 51-100% contamination with 3mm, friction coefficient 0.37.
خام UNBB 062330Z 21006MPS 9999 SCT009 BKN020CB 00/M01 Q1015 R24/590337 NOSIG RMK QFE739

MVFR

0°C / -1°C

[أكثر]
رياح 210º 12kt
مجال رؤية >10km
حالة الطقس Light Showers Snow 3.00mm precipitation
غيوم Vertical Visibility of 0ft.
Broken Clouds 2000ft
الضغط 1015
تغيير No Significant change. Runway 24: Wet snow, 51-100% contamination with 10mm, friction coefficient 0.32.
خام UNBB 062300Z 21006MPS 9999 -SHSN SCT008 BKN020CB M00/M01 Q1015 R24/591032 NOSIG RMK QFE739

MVFR

0°C / -1°C

[أكثر]
رياح 200º 12kt
مجال رؤية >10km
حالة الطقس Light Showers Snow 3.00mm precipitation
غيوم Vertical Visibility of 0ft.
Broken Clouds 2000ft
الضغط 1015
تغيير No Significant change. Runway 24: Wet snow, 51-100% contamination with 10mm, friction coefficient 0.32.
خام UNBB 062230Z 20006MPS 9999 -SHSN SCT007 BKN020CB M00/M01 Q1015 R24/591032 NOSIG RMK QFE739

MVFR

0°C / -1°C

[أكثر]
رياح 200º 12kt
مجال رؤية >10km
حالة الطقس Light Showers Snow 3.00mm precipitation
غيوم Vertical Visibility of 0ft.
Broken Clouds 2000ft
الضغط 1015
تغيير No Significant change. Runway 24: Wet snow, 51-100% contamination with 10mm, friction coefficient 0.32.
خام UNBB 062200Z 20006MPS 9999 -SHSN SCT006 BKN020CB M00/M01 Q1015 R24/591032 NOSIG RMK QFE739

MVFR

0°C / -1°C

[أكثر]
رياح 200º 10kt
مجال رؤية 6000m
حالة الطقس Light Showers Snow 3.00mm precipitation
غيوم Vertical Visibility of 0ft.
Broken Clouds 1700ft
الضغط 1016
تغيير No Significant change. Runway 24: Wet snow, 51-100% contamination with 10mm, friction coefficient 0.32.
خام UNBB 062130Z 20005MPS 6000 -SHSN SCT005 BKN017CB M00/M01 Q1016 R24/591032 NOSIG RMK QFE739

IFR

0°C / -1°C

[أكثر]
رياح 210º 10kt
مجال رؤية 2400m
حالة الطقس Light Showers Snow 3.00mm precipitation
غيوم Vertical Visibility of 0ft.
Broken Clouds 1700ft
الضغط 1016
تغيير No Significant change. Runway 24: Wet snow, 51-100% contamination with 5mm, friction coefficient 0.40.
خام UNBB 062100Z 21005MPS 2400 -SHSN SCT005 BKN017CB M00/M01 Q1016 R24/590540 NOSIG RMK QFE740

IFR

-1°C / -2°C

[أكثر]
رياح 200º 10kt
مجال رؤية 4500m
حالة الطقس Light Showers Snow 3.00mm precipitation
غيوم Vertical Visibility of 0ft.
Broken Clouds 1800ft
الضغط 1016
تغيير No Significant change. Runway 24: Wet snow, 51-100% contamination with 5mm, friction coefficient 0.40.
خام UNBB 062030Z 20005MPS 4500 -SHSN SCT005 BKN018CB M01/M02 Q1016 R24/590540 NOSIG RMK QFE740

IFR

-1°C / -1°C

[أكثر]
رياح 210º 10kt
مجال رؤية 2000m
حالة الطقس Showers Snow 3.00mm precipitation
غيوم Vertical Visibility of 0ft.
Broken Clouds 1800ft
الضغط 1016
تغيير No Significant change. Runway 24: Wet snow, 51-100% contamination with 5mm, friction coefficient 0.40.
خام UNBB 062000Z 21005MPS 2000 SHSN SCT004 BKN018CB M01/M01 Q1016 R24/590540 NOSIG RMK QFE740

IFR

-1°C / -2°C

[أكثر]
رياح 200º 10kt
مجال رؤية 3100m
حالة الطقس Light Showers Snow 3.00mm precipitation
غيوم Vertical Visibility of 0ft.
Broken Clouds 1600ft
الضغط 1016
تغيير No Significant change. Runway 24: Wet snow, 51-100% contamination with 5mm, friction coefficient 0.40.
خام UNBB 061930Z 20005MPS 3100 -SHSN SCT004 BKN016CB M01/M02 Q1016 R24/590540 NOSIG RMK QFE740

IFR

-1°C / -2°C

[أكثر]
رياح 190º 10kt
مجال رؤية 2300m
حالة الطقس Light Showers Snow 3.00mm precipitation
غيوم Vertical Visibility of 0ft.
Broken Clouds 1600ft
الضغط 1017
تغيير No Significant change. Runway 24: Wet snow, 51-100% contamination with 5mm, friction coefficient 0.40.
خام UNBB 061900Z 19005MPS 2300 -SHSN SCT004 BKN016CB M01/M02 Q1017 R24/590540 NOSIG RMK QFE740

LIFR

-2°C / -2°C

[أكثر]
رياح 200º 10kt
مجال رؤية 1300m. Runway 24: Visual range is 2000m and increasing.
حالة الطقس Showers Snow 3.00mm precipitation
غيوم Vertical Visibility of 0ft.
Broken Clouds 1600ft
الضغط 1017
تغيير No Significant change. Runway 24: Wet snow, 51-100% contamination with 5mm, friction coefficient 0.40.
خام UNBB 061830Z 20005MPS 1300 1200S R24/P2000U SHSN SCT004 BKN016CB M02/M02 Q1017 R24/590540 NOSIG RMK QFE740

LIFR

-2°C / -2°C

[أكثر]
رياح 200º 10kt
مجال رؤية 1400m. Runway 24: Visual range is 2000m and decreasing.
حالة الطقس Showers Snow 3.00mm precipitation
غيوم Vertical Visibility of 0ft.
Broken Clouds 1600ft
الضغط 1017
تغيير No Significant change. Runway 24: Damp, 51-100% contamination with <1mm, friction coefficient 0.53.
خام UNBB 061800Z 20005MPS 1400 1300S R24/P2000D SHSN SCT004 BKN016CB M02/M02 Q1017 R24/190053 NOSIG RMK QFE740

IFR

-2°C / -3°C

[أكثر]
رياح 190º 8kt
مجال رؤية 2700m
حالة الطقس Light Showers Snow 3.00mm precipitation
غيوم Vertical Visibility of 0ft.
Broken Clouds 1600ft
الضغط 1017
تغيير No Significant change. Runway 24: Damp, 51-100% contamination with <1mm, friction coefficient 0.53.
خام UNBB 061730Z 19004MPS 2700 -SHSN SCT005 BKN016CB M02/M03 Q1017 R24/190053 NOSIG RMK QFE740

IFR

-2°C / -3°C

[أكثر]
رياح 180º 8kt
مجال رؤية 2400m
حالة الطقس Light Showers Snow 3.00mm precipitation
غيوم Vertical Visibility of 0ft.
Broken Clouds 1600ft
الضغط 1017
تغيير No Significant change. Runway 24: Damp, 51-100% contamination with <1mm, friction coefficient 0.53.
خام UNBB 061700Z 18004MPS 2400 -SHSN SCT005 BKN016CB M02/M03 Q1017 R24/190053 NOSIG RMK QFE741

IFR

-2°C / -3°C

[أكثر]
رياح 210º 10kt
مجال رؤية 3000m
حالة الطقس Light Showers Snow 3.00mm precipitation
غيوم Vertical Visibility of 0ft.
Broken Clouds 2000ft
الضغط 1017
تغيير No Significant change. Runway 24: Damp, 51-100% contamination with <1mm, friction coefficient 0.53.
خام UNBB 061630Z 21005MPS 3000 -SHSN SCT005 BKN020CB M02/M03 Q1017 R24/190053 NOSIG RMK QFE741

MVFR

-2°C / -3°C

[أكثر]
رياح 220º 8kt
مجال رؤية 5000m
حالة الطقس Light Snow 1.00mm precipitation
غيوم Vertical Visibility of 0ft.
الضغط 1018
تغيير No Significant change. Runway 24: Damp, 51-100% contamination with <1mm, friction coefficient 0.53.
خام UNBB 061600Z 22004MPS 5000 -SN BKN020 M02/M03 Q1018 R24/190053 NOSIG RMK QFE741

VFR

-2°C / -4°C

[أكثر]
رياح 220º 12kt
مجال رؤية >10km
حالة الطقس Light Snow 1.00mm precipitation
غيوم Vertical Visibility of 0ft.
الضغط 1018
تغيير No Significant change. Runway 24: Damp, 51-100% contamination with <1mm, friction coefficient 0.53.
خام UNBB 061530Z 22006MPS 9999 -SN BKN032 M02/M04 Q1018 R24/190053 NOSIG RMK QFE741

MVFR

-2°C / -4°C

[أكثر]
رياح 220º 12kt
مجال رؤية 8000m
حالة الطقس Light Snow 1.00mm precipitation
غيوم Vertical Visibility of 0ft.
الضغط 1018
تغيير No Significant change. Runway 24: Damp, 51-100% contamination with <1mm, friction coefficient 0.53.
خام UNBB 061500Z 22006MPS 8000 -SN BKN019 M02/M04 Q1018 R24/190053 NOSIG RMK QFE741

VFR

-1°C / -5°C

[أكثر]
رياح 220º 10kt
مجال رؤية >10km
حالة الطقس Light Snow 1.00mm precipitation
غيوم Vertical Visibility of 0ft.
الضغط 1018
تغيير No Significant change. Runway 24: Damp, 51-100% contamination with <1mm, friction coefficient 0.53.
خام UNBB 061430Z 22005MPS 9999 -SN BKN040 M01/M05 Q1018 R24/190053 NOSIG RMK QFE741

انقر لBarnaul Airport (UNBB)

From till


From till Wind 210º 14kt. Gust 25kt. Visibility 3000m. Light Showers Snow . Scattered Clouds 700ft. Broken Clouds 1600ft.
Temporarly from till Visibility 498.895m. Heavy Showers Snow Heavy Showers Rain . Scattered Clouds 400ft. Broken Clouds 1000ft.
Becoming from till Wind 260º 14kt. Gust 25kt. Visibility 3000m. Light Showers Snow . Scattered Clouds 700ft. Broken Clouds 1600ft.
Becoming from till Wind 260º 14kt. Gust 25kt. Visibility 8000m. Light Showers Snow . Broken Clouds 1600ft.
Temporarly from till Visibility 3000m. Light Showers Snow low Drifting Snow . Broken Clouds 1000ft.

خام: TAF UNBB 062300Z 0700/0724 21007G13MPS 3000 -SHSN SCT007 BKN016CB TEMPO 0700/0712 0500 +SHSNRA SCT004 BKN010CB BECMG 0708/0709 26007G13MPS BECMG 0712/0713 8000 -SHSN BKN016CB TEMPO 0713/0724 3000 -SHSN DRSN BKN010CB

رادار وهطول الأمطار التنبؤ الآني لBarnaul Airport

رذاذ
ضوء
معتدل
ثقيل
ثقيل جدا
وابل

مؤشر المكان يشير الى Barnaul Airport. تظهر في هذه الرسوم المتحركة هطول الامطار بالرادار للساعة الماضية, و توقعات 1h. رذاذ أو تساقط ثلوج خفيف قد يكون غير مرئي للرادار. كثافة هطول الأمطار مرمزة بالألوان وتتراوح من الأزرق الفاتح إلى البرتقالي.

صور الأقمار الصناعية الملتقطة و الأمطار حالياً لBarnaul Airport, روسيا

المؤشر يدل على موقع Barnaul Airport. [أكثر]

تجمع صورة الأقمار الصناعية في الوقت الفعلي بين الضوء المرئي أثناء النهار والأشعة تحت الحمراء أثناء الليل. لا تبدو الصورة مظلمة ليلاً، لأن الأشعة تحت الحمراء يمكنها الكشف عن الاختلافات في درجة الحرارة. لسوء الحظ ، يصعب التمييز بين السحب المنخفضة والضباب ودرجات حرارة الأرض ، وبالتالي يمكن أن تكون الصور غير مرئية تقريبًا أثناء الليل. يتم تحديث صور الأقمار الصناعية Meteosat الخاصة بأوروبا في الوقت الفعلي كل 5 دقائق، بينما يتم تحديث صور GOES-16 / GOES-17 (أمريكا الشمالية والجنوبية) و Himawari (آسيا) كل 10 دقائق.

حقوق النسخ 2021 EUMETSAT / meteoblue. / حقوق النسخ 2021 meteoblue